To NAV CANADA Home Page Login to a new session Search on AWWS site Feedback and Comments Disclaimer Vers la page française équivalente Tips FAQ What's new on the site To the Forecasts and Observations / NOTAM section To "File a Flight Plan" website Publications and other links Update of the User's profile FIC Telephone Numbers My Weather Data Folder Route Weather Data Regional Weather Data Local Weather Data To the Forecasts and Observations / NOTAM section
Request Generated 12/10/2016 at 16:32:29 UTC . Weather information available at that time is displayed.

METAR/TAF

WHITEHORSE/ERIK NIELSEN INTL/YT    

METAR CYXY 101600Z 32009KT 15SM -SN DRSN FEW013 BKN090 M23/M26 A3027
RMK SC2AC5 SLP331=
METAR CYXY 101500Z 33008KT 10SM -SN DRSN SCT013 BKN120 M23/M26 A3028
RMK SC4AC3 SLP336=
SPECI CYXY 101431Z 33009KT 15SM -SN DRSN BKN013 M23/M26 A3028 RMK SC6
SLP335=
METAR CYXY 101400Z CCA 33008KT 15SM -SN DRSN FEW020 M24/M27 A3028 RMK
SC2 SLP339=
METAR CYXY 101400Z 33008KT 15SM -SN FEW020 M24/M27 A3028 RMK SC2
SLP339=

TAF CYXY 101138Z 1012/1024 34008KT 5SM -SN OVC020 TEMPO 1012/1022
P6SM NSW OVC025
FM102200 34008KT P6SM SCT020
RMK NXT FCST BY 101800Z=
Your time UTC time
Weather data provided by Environment Canada and NAV CANADA